Latest Weather Observations for Ceduna

IDS60801

Issued at 11:31 am CST Friday 29 May 2015 (issued every 30 minutes, with the page automatically refreshed every 10 minutes)

About weather observations | Map of weather stations | Latest weather observations for SA | Other Formats
Station Details ID: 018012 Name: CEDUNA AMO Lat: -32.13 Lon: 133.70 Height: 15.3 m
Data from the previous 72 hours. | See also: Recent months at Ceduna
Date/Time
CST
Temp
°C
App
Temp
°C
Dew
Point
Rel
Hum
%
Delta-T
°C
Wind Press
QNH
hPa
Press
MSL
hPa
Rain
since 9 am
mm
Dir
 
Spd
km/h
Gust
km/h
Spd
kts
Gust
kts
29/11:30am 14.9 12.7 12.2 84 1.5 ESE 15 19 8 10 1025.5 1025.5 0.2
29/11:00am 14.6 12.6 12.8 89 1.0 E 15 19 8 10 1025.8 1025.8 0.2
29/10:32am 13.8 13.5 13.2 96 0.3 S 7 11 4 6 1025.9 1025.9 0.2
29/10:30am 13.7 13.3 12.9 95 0.4 SSW 7 11 4 6 1026.0 1026.0 0.2
29/10:09am 12.6 10.4 12.1 97 0.3 SSE 15 20 8 11 1026.1 1026.1 0.0
29/10:07am 12.5 9.9 11.9 96 0.3 SSE 17 20 9 11 1026.1 1026.1 0.0
29/10:00am 12.8 10.3 12.2 96 0.3 SSE 17 24 9 13 1026.0 1026.0 0.0
29/09:59am 12.8 10.3 12.2 96 0.3 SSE 17 24 9 13 1026.0 1026.0 0.0
29/09:30am 12.5 11.5 12.2 98 0.2 NE 9 11 5 6 1025.8 1025.8 0.0
29/09:00am 12.4 11.9 12.2 99 0.1 NE 6 7 3 4 1025.4 1025.4 0.2
29/08:30am 11.8 10.6 11.6 99 0.1 ENE 9 11 5 6 1025.2 1025.2 0.2
29/08:00am 10.9 9.8 10.7 99 0.1 NE 7 9 4 5 1025.1 1025.1 0.2
29/07:30am 11.5 9.4 11.3 99 0.1 ESE 13 17 7 9 1024.1 1024.1 0.2
29/07:02am 11.7 9.8 11.7 100 0.0 ESE 13 17 7 9 1024.7 1024.7 0.2
29/07:00am 11.7 9.8 11.7 100 0.0 ESE 13 17 7 9 1024.6 1024.6 0.2
29/06:30am 8.5 7.4 8.4 99 0.0 NE 4 6 2 3 1024.3 1024.3 0.0
29/06:11am 8.3 7.1 8.0 98 0.1 NE 4 6 2 3 1024.1 1024.1 0.0
29/06:00am 8.5 7.4 8.4 99 0.0 NE 4 9 2 5 1023.8 1023.8 0.0
29/05:30am 8.3 7.1 8.2 99 0.0 E 4 7 2 4 1023.4 1023.4 0.0
29/05:21am 8.0 6.4 7.9 99 0.0 E 6 7 3 4 1023.2 1023.2 0.0
29/05:04am 8.2 5.7 8.1 99 0.0 ESE 11 11 6 6 1023.5 1023.5 0.0
29/05:00am 8.2 5.7 8.1 99 0.0 ESE 11 11 6 6 1023.4 1023.4 0.0
29/04:30am 7.9 7.3 7.6 98 0.1 CALM 0 4 0 2 1023.7 1023.7 0.0
29/04:04am 8.5 6.4 8.4 99 0.0 NE 9 11 5 6 1023.8 1023.8 0.0
29/04:00am 8.7 6.7 8.6 99 0.0 NE 9 11 5 6 1024.0 1024.0 0.0
29/03:49am 8.2 6.6 8.1 99 0.0 NE 6 9 3 5 1024.0 1024.0 0.0
29/03:30am 7.4 5.6 7.1 98 0.1 NE 6 7 3 4 1023.9 1023.9 0.0
29/03:15am 7.1 4.7 6.8 98 0.1 ENE 9 9 5 5 1023.5 1023.5 0.0
29/03:00am 6.7 4.5 6.4 98 0.1 NE 7 9 4 5 1023.5 1023.5 0.0
29/02:57am 6.9 4.8 6.5 97 0.2 NE 7 9 4 5 1023.5 1023.5 0.0
29/02:48am 7.5 6.1 7.1 97 0.2 NNE 4 7 2 4 1023.5 1023.5 0.0
29/02:44am 7.9 6.2 7.6 98 0.1 NNE 6 7 3 4 1023.5 1023.5 0.0
29/02:30am 8.4 6.6 8.1 98 0.1 NNE 7 9 4 5 1023.4 1023.4 0.0
29/02:18am 7.9 6.2 7.6 98 0.1 NNE 6 7 3 4 1023.5 1023.5 0.0
29/02:17am 7.9 6.2 7.6 98 0.1 NNE 6 7 3 4 1023.5 1023.5 0.0
29/02:01am 8.6 8.3 8.5 99 0.0 CALM 0 0 0 0 1023.6 1023.6 0.0
29/02:00am 8.7 8.3 8.4 98 0.1 CALM 0 0 0 0 1023.6 1023.6 0.0
29/01:30am 8.1 6.8 7.8 98 0.1 S 4 7 2 4 1023.4 1023.4 0.0
29/01:02am 8.6 8.2 8.3 98 0.1 CALM 0 0 0 0 1023.3 1023.3 0.0
29/01:00am 8.6 8.2 8.3 98 0.1 CALM 0 0 0 0 1023.3 1023.3 0.0
29/12:41am 9.5 9.3 9.2 98 0.1 CALM 0 6 0 3 1023.4 1023.4 0.0
29/12:30am 9.6 8.7 9.3 98 0.1 ENE 4 6 2 3 1023.5 1023.5 0.0
29/12:00am 10.3 9.6 10.0 98 0.2 NE 4 9 2 5 1023.3 1023.3 0.0
 
Date/Time
CST
Temp
°C
App
Temp
°C
Dew
Point
Rel
Hum
%
Delta-T
°C
Wind Press
QNH
hPa
Press
MSL
hPa
Rain
since 9 am
mm
Dir
 
Spd
km/h
Gust
km/h
Spd
kts
Gust
kts
28/11:30pm 10.8 10.9 10.3 97 0.3 CALM 0 0 0 0 1023.7 1023.7 0.0
28/11:00pm 11.1 11.3 10.6 97 0.3 CALM 0 0 0 0 1023.5 1023.5 0.0
28/10:49pm 11.7 12.1 11.2 97 0.3 CALM 0 0 0 0 1023.3 1023.3 0.0
28/10:30pm 12.3 12.9 12.0 98 0.2 CALM 0 0 0 0 1023.4 1023.4 0.0
28/10:00pm 12.5 12.4 12.2 98 0.2 N 4 7 2 4 1023.1 1023.1 0.0
28/09:50pm 12.5 12.0 12.2 98 0.2 ENE 6 7 3 4 1023.0 1023.0 0.0
28/09:30pm 11.7 10.9 11.2 97 0.3 ENE 6 9 3 5 1022.7 1022.7 0.0
28/09:01pm 12.3 12.5 11.8 97 0.3 NNE 2 7 1 4 1023.1 1023.1 0.0
28/09:00pm 12.2 12.4 11.7 97 0.3 NNE 2 7 1 4 1023.1 1023.1 0.0
28/08:30pm 12.9 11.6 12.4 97 0.3 ENE 11 13 6 7 1022.5 1022.5 0.0
28/08:10pm 13.2 12.3 12.7 97 0.3 ENE 9 13 5 7 1022.5 1022.5 0.0
28/08:00pm 13.3 13.0 12.8 97 0.3 E 6 7 3 4 1022.4 1022.4 0.0
28/07:30pm 14.3 14.1 13.7 96 0.3 SSW 7 9 4 5 1022.1 1022.1 0.0
28/07:24pm 14.4 14.3 13.8 96 0.3 SSW 7 9 4 5 1022.0 1022.0 0.0
28/07:00pm 14.7 14.3 14.1 96 0.3 SSW 9 11 5 6 1021.9 1021.9 0.0
28/06:30pm 14.3 14.3 13.5 95 0.4 SW 6 7 3 4 1021.5 1021.5 0.0
28/06:00pm 14.7 14.5 13.7 94 0.6 SW 7 9 4 5 1021.4 1021.4 0.0
28/05:30pm 15.1 14.7 14.1 94 0.6 S 9 11 5 6 1020.7 1020.7 0.0
28/05:00pm 16.0 15.7 14.5 91 0.9 SW 9 13 5 7 1020.8 1020.8 0.0
28/04:30pm 16.5 15.9 14.7 89 1.0 SSW 11 15 6 8 1020.3 1020.3 0.0
28/04:00pm 17.0 16.0 14.6 86 1.4 SW 13 15 7 8 1020.3 1020.3 0.0
28/03:30pm 17.7 16.2 13.0 74 2.6 WSW 13 15 7 8 1020.3 1020.3 0.0
28/03:00pm 18.6 16.7 11.7 64 3.8 WSW 13 19 7 10 1020.2 1020.2 0.0
28/02:30pm 18.6 16.4 12.1 66 3.6 WSW 15 20 8 11 1020.3 1020.3 0.0
28/02:00pm 18.7 17.6 12.0 65 3.7 WSW 9 13 5 7 1020.1 1020.1 0.0
28/01:30pm 18.9 18.1 12.9 68 3.4 W 9 13 5 7 1020.3 1020.3 0.0
28/01:00pm 18.9 18.8 14.0 73 2.8 NW 7 13 4 7 1020.4 1020.4 0.0
28/12:30pm 18.3 18.5 15.7 85 1.5 NNW 9 11 5 6 1020.7 1020.7 0.0
28/12:12pm 17.1 17.3 15.8 92 0.8 NNW 9 13 5 7 1020.9 1020.9 0.0
28/12:00pm 16.5 16.7 15.7 95 0.5 N 9 13 5 7 1021.0 1021.0 0.0
28/11:30am 15.4 15.4 15.2 99 0.1 N 9 13 5 7 1021.3 1021.3 0.0
28/11:29am 15.2 15.1 15.0 99 0.1 N 9 13 5 7 1021.3 1021.3 0.0
28/11:00am 14.7 14.8 14.5 99 0.1 N 7 13 4 7 1021.7 1021.7 0.0
28/10:30am 14.4 14.0 14.2 99 0.1 N 9 11 5 6 1021.9 1021.9 0.0
28/10:00am 13.9 13.7 13.7 99 0.1 N 7 11 4 6 1022.0 1022.0 0.0
28/09:30am 13.7 13.7 13.5 99 0.1 N 6 9 3 5 1021.8 1021.8 0.0
28/09:00am 12.7 12.2 12.5 99 0.1 N 7 9 4 5 1021.7 1021.7 0.2
28/08:30am 12.0 12.2 11.8 99 0.1 N 2 9 1 5 1021.5 1021.5 0.2
28/08:00am 11.4 10.5 11.2 99 0.1 NNW 7 7 4 4 1021.2 1021.2 0.2
28/07:30am 11.2 11.5 11.0 99 0.1 CALM 0 0 0 0 1020.9 1020.9 0.2
28/07:00am 11.4 11.8 11.2 99 0.1 CALM 0 0 0 0 1020.7 1020.7 0.2
28/06:30am 11.2 10.2 11.0 99 0.1 NNE 7 9 4 5 1020.4 1020.4 0.0
28/06:00am 10.9 9.8 10.7 99 0.1 N 7 9 4 5 1019.9 1019.9 0.0
28/05:30am 10.5 10.6 10.3 99 0.1 CALM 0 0 0 0 1019.5 1019.5 0.0
28/05:00am 10.1 10.1 9.9 99 0.1 CALM 0 0 0 0 1019.2 1019.2 0.0
28/04:49am 9.8 9.8 9.7 99 0.1 CALM 0 0 0 0 1019.1 1019.1 0.0
28/04:38am 9.6 8.4 9.5 99 0.0 NNE 6 7 3 4 1019.2 1019.2 0.0
28/04:30am 9.8 9.0 9.7 99 0.0 ENE 4 7 2 4 1019.2 1019.2 0.0
28/04:14am 8.3 7.1 8.2 99 0.0 SSE 4 7 2 4 1019.1 1019.1 0.0
28/04:00am 8.4 6.7 8.3 99 0.0 SE 7 9 4 5 1019.0 1019.0 0.0
28/03:30am 8.3 6.5 8.0 98 0.1 S 7 9 4 5 1019.0 1019.0 0.0
28/03:00am 8.6 7.5 8.3 98 0.1 ENE 4 6 2 3 1019.0 1019.0 0.0
28/02:30am 9.0 7.6 8.7 98 0.1 NE 6 9 3 5 1019.4 1019.4 0.0
28/02:02am 10.0 8.6 9.7 98 0.2 NNE 7 9 4 5 1019.3 1019.3 0.0
28/02:00am 9.9 8.5 9.6 98 0.1 NNE 7 9 4 5 1019.3 1019.3 0.0
28/01:30am 10.4 8.8 10.1 98 0.2 N 9 11 5 6 1019.2 1019.2 0.0
28/01:00am 10.9 9.8 10.6 98 0.2 N 7 9 4 5 1019.1 1019.1 0.0
28/12:30am 11.9 10.7 11.6 98 0.2 NNE 9 11 5 6 1019.3 1019.3 0.0
28/12:00am 9.9 8.7 9.4 97 0.2 N 6 7 3 4 1019.6 1019.6 0.0
 
Date/Time
CST
Temp
°C
App
Temp
°C
Dew
Point
Rel
Hum
%
Delta-T
°C
Wind Press
QNH
hPa
Press
MSL
hPa
Rain
since 9 am
mm
Dir
 
Spd
km/h
Gust
km/h
Spd
kts
Gust
kts
27/11:35pm 9.6 8.3 9.1 97 0.2 N 6 7 3 4 1020.0 1020.0 0.0
27/11:30pm 9.4 8.0 8.8 96 0.3 N 6 7 3 4 1019.9 1019.9 0.0
27/11:16pm 10.3 9.0 9.8 97 0.3 N 7 9 4 5 1019.8 1019.8 0.0
27/11:14pm 10.5 9.2 10.0 97 0.3 N 7 9 4 5 1019.8 1019.8 0.0
27/11:00pm 10.4 8.7 9.9 97 0.3 N 9 11 5 6 1020.0 1020.0 0.0
27/10:44pm 10.1 8.7 9.5 96 0.3 NNE 7 9 4 5 1019.9 1019.9 0.0
27/10:40pm 10.3 8.9 9.7 96 0.3 NNE 7 9 4 5 1019.8 1019.8 0.0
27/10:30pm 10.6 8.9 10.0 96 0.3 NNE 9 9 5 5 1020.0 1020.0 0.0
27/10:25pm 10.8 9.2 10.3 97 0.3 NNE 9 11 5 6 1020.1 1020.1 0.0
27/10:00pm 10.4 9.3 9.9 97 0.3 NNE 6 9 3 5 1020.1 1020.1 0.0
27/09:30pm 9.8 9.6 9.0 95 0.4 CALM 0 0 0 0 1020.1 1020.1 0.0
27/09:00pm 10.7 10.8 10.1 96 0.3 CALM 0 6 0 3 1020.1 1020.1 0.0
27/08:30pm 11.1 9.5 10.3 95 0.4 N 9 11 5 6 1019.9 1019.9 0.0
27/08:00pm 10.8 10.7 9.6 92 0.6 CALM 0 2 0 1 1019.8 1019.8 0.0
27/07:30pm 12.3 12.6 11.0 92 0.7 CALM 0 6 0 3 1019.4 1019.4 0.0
27/07:00pm 14.1 14.6 12.8 92 0.7 S 2 6 1 3 1019.0 1019.0 0.0
27/06:30pm 13.8 13.2 11.7 87 1.1 S 6 7 3 4 1018.8 1018.8 0.0
27/06:00pm 15.3 14.8 12.6 84 1.5 S 7 9 4 5 1018.8 1018.8 0.0
27/05:30pm 16.6 15.2 13.3 81 1.8 SSW 13 17 7 9 1018.6 1018.6 0.0
27/05:00pm 18.0 16.2 13.3 74 2.7 SSW 15 19 8 10 1018.6 1018.6 0.0
27/04:30pm 19.0 16.8 13.2 69 3.3 SSW 17 20 9 11 1018.6 1018.6 0.0
27/04:00pm 19.8 17.8 14.0 69 3.3 SW 17 22 9 12 1018.6 1018.6 0.0
27/03:30pm 19.5 17.5 13.9 70 3.2 SW 17 20 9 11 1018.3 1018.3 0.0
27/03:00pm 21.2 19.9 13.6 62 4.4 SW 13 17 7 9 1018.3 1018.3 0.0
27/02:30pm 21.1 20.1 13.5 62 4.4 SSW 11 15 6 8 1018.4 1018.4 0.0
27/02:00pm 21.4 20.0 13.3 60 4.6 SW 13 17 7 9 1018.8 1018.8 0.0
27/01:30pm 21.7 20.5 14.1 62 4.4 SW 13 19 7 10 1019.3 1019.3 0.0
27/01:00pm 20.9 19.5 13.4 62 4.3 SW 13 17 7 9 1019.8 1019.8 0.0
27/12:30pm 20.7 19.1 12.9 61 4.4 W 13 19 7 10 1020.3 1020.3 0.0
27/12:00pm 20.6 19.4 12.8 61 4.4 WNW 11 17 6 9 1020.8 1020.8 0.0
27/11:30am 20.2 18.6 12.7 62 4.2 WNW 13 17 7 9 1021.4 1021.4 0.0
27/11:00am 19.6 17.9 12.6 64 3.9 NW 13 19 7 10 1021.7 1021.7 0.0
27/10:30am 19.4 17.8 12.7 65 3.8 NW 13 19 7 10 1021.9 1021.9 0.0
27/10:00am 17.9 16.8 13.2 74 2.6 NNW 11 13 6 7 1022.1 1022.1 0.0
27/09:30am 16.0 15.5 13.7 86 1.3 N 9 11 5 6 1022.2 1022.2 0.0
27/09:00am 13.5 12.6 12.6 94 0.5 N 9 9 5 5 1021.9 1021.9 0.0
27/08:30am 10.8 9.2 10.3 97 0.3 NNE 9 9 5 5 1021.8 1021.8 0.0
27/08:00am 8.4 6.3 8.1 98 0.1 NNE 9 11 5 6 1021.6 1021.6 0.0
27/07:30am 7.6 5.6 7.2 97 0.2 N 7 9 4 5 1021.3 1021.3 0.0
27/07:00am 7.2 4.8 6.8 97 0.2 NNE 9 11 5 6 1021.1 1021.1 0.0
27/06:30am 6.7 4.1 6.3 97 0.2 NNE 9 11 5 6 1020.8 1020.8 0.0
27/06:00am 7.4 5.0 7.0 97 0.2 NNE 9 11 5 6 1020.6 1020.6 0.0
27/05:30am 7.7 5.4 7.3 97 0.2 NNE 9 9 5 5 1020.5 1020.5 0.0
27/05:00am 7.8 5.5 7.4 97 0.2 NE 9 11 5 6 1020.6 1020.6 0.0
27/04:30am 7.9 6.2 7.5 97 0.2 NE 6 9 3 5 1020.6 1020.6 0.0
27/04:00am 8.8 6.3 8.4 97 0.2 NE 11 15 6 8 1020.6 1020.6 0.0
27/03:30am 6.9 4.8 6.5 97 0.2 NE 7 9 4 5 1020.8 1020.8 0.0
27/03:00am 8.6 7.0 8.2 97 0.2 NNE 6 7 3 4 1021.0 1021.0 0.0
27/02:30am 8.4 6.6 7.8 96 0.3 N 7 7 4 4 1021.4 1021.4 0.0
27/02:00am 8.9 6.8 8.3 96 0.3 N 9 9 5 5 1021.5 1021.5 0.0
27/01:30am 8.6 7.0 8.0 96 0.3 N 6 6 3 3 1021.6 1021.6 0.0
27/01:00am 8.8 7.0 7.9 94 0.4 N 7 9 4 5 1021.8 1021.8 0.0
27/12:30am 8.8 7.1 7.7 93 0.5 N 6 6 3 3 1021.9 1021.9 0.0
27/12:00am 10.1 8.6 9.0 93 0.5 N 7 9 4 5 1022.1 1022.1 0.0
 
Date/Time
CST
Temp
°C
App
Temp
°C
Dew
Point
Rel
Hum
%
Delta-T
°C
Wind Press
QNH
hPa
Press
MSL
hPa
Rain
since 9 am
mm
Dir
 
Spd
km/h
Gust
km/h
Spd
kts
Gust
kts
26/11:30pm 10.3 9.0 9.1 92 0.6 N 6 6 3 3 1022.2 1022.2 0.0
26/11:00pm 10.7 9.5 9.5 92 0.6 N 6 7 3 4 1022.2 1022.2 0.0
26/10:30pm 11.5 10.3 10.2 92 0.7 N 7 9 4 5 1022.1 1022.1 0.0
26/10:00pm 11.4 9.8 10.1 92 0.7 NNE 9 11 5 6 1022.3 1022.3 0.0
26/09:30pm 12.1 11.6 10.7 91 0.7 N 4 9 2 5 1022.3 1022.3 0.0
26/09:00pm 12.9 13.4 11.5 91 0.7 CALM 0 0 0 0 1022.2 1022.2 0.0
26/08:30pm 13.3 13.8 11.7 90 0.8 CALM 0 0 0 0 1022.2 1022.2 0.0
26/08:00pm 13.2 13.6 11.1 87 1.1 CALM 0 0 0 0 1021.8 1021.8 0.0
26/07:30pm 14.6 15.2 11.9 84 1.5 CALM 0 0 0 0 1021.6 1021.6 0.0
26/07:00pm 15.0 15.6 12.0 82 1.6 CALM 0 0 0 0 1021.4 1021.4 0.0
26/06:30pm 16.1 15.2 12.5 79 2.0 SW 9 11 5 6 1021.3 1021.3 0.0
26/06:00pm 16.1 15.4 12.1 77 2.2 SSW 7 9 4 5 1021.5 1021.5 0.0
26/05:30pm 16.6 15.8 11.7 73 2.7 SW 7 9 4 5 1021.4 1021.4 0.0
26/05:00pm 17.2 15.4 11.0 67 3.3 SSW 11 13 6 7 1021.2 1021.2 0.0
26/04:30pm 17.6 15.0 10.7 64 3.7 SSW 15 17 8 9 1021.1 1021.1 0.0
26/04:00pm 18.5 15.9 12.0 66 3.6 SW 17 22 9 12 1020.8 1020.8 0.0
26/03:30pm 18.9 16.0 11.0 60 4.3 SW 17 20 9 11 1020.8 1020.8 0.0
26/03:00pm 20.3 17.8 9.8 51 5.6 W 13 17 7 9 1020.6 1020.6 0.0
26/02:30pm 21.2 19.7 10.4 50 5.9 NW 9 13 5 7 1020.6 1020.6 0.0
26/02:00pm 21.5 20.4 10.0 48 6.2 N 6 9 3 5 1020.9 1020.9 0.0
26/01:30pm 19.2 18.2 11.0 59 4.4 WNW 7 9 4 5 1021.4 1021.4 0.0
26/01:00pm 18.5 16.5 11.6 64 3.8 W 13 17 7 9 1021.9 1021.9 0.0
26/12:30pm 20.0 16.5 10.1 53 5.3 NNW 19 24 10 13 1022.2 1022.2 0.0
26/12:00pm 20.4 16.5 9.6 50 5.7 NNW 20 28 11 15 1022.5 1022.5 0.0

Other Formats:

Comma delimited format used in spreadsheet applications
http://www.bom.gov.au/fwo/IDS60801/IDS60801.94653.axf

JavaScript Object Notation format (JSON) in row-major order
http://www.bom.gov.au/fwo/IDS60801/IDS60801.94653.json